Celtic Explorer — EIGB — position and weather

sailwx.info

Track history (hours):
 
Tides and Currents Weather Stations Pressure Air Temp Water Temp Dewpoint Dewpoint Depression Visibility Wind Speed Wind Dir Waves Ship Positions

Oceanographic research ship Celtic Explorer (Ireland)

Detailed information on ship capabilities available from University of Delaware's Ocean Information Center.

Last reported at 2018-Jun-12 20:17 UTC. Time now 2018-Jun-23 04:46 UTC.
Position N 47°29' W 005°40'.
Warning: this ship's position is 10 days out of date.

Type: . MMSI: 250487000.

Date/timePositionNaut miles runAvg speedWind from/ knotsBaromVisibWave heightAir tempDewpointWater temp
2018-Jun-12 20:17N 47°29' W 005°40'261 5.9
2018-Jun-10 23:43N 51°06' W 009°24'410.7
2018-Jun-10 23:20N 51°08' W 009°29'410.9
2018-Jun-10 23:00N 51°10' W 009°33'715.0
2018-Jun-10 22:30N 51°16' W 009°42'612.1
2018-Jun-10 21:59N 51°21' W 009°47'3 6.7
2018-Jun-10 21:30N 51°24' W 009°49'713.3
2018-Jun-10 20:59N 51°31' W 009°48'3 5.5
2018-Jun-10 20:29N 51°32' W 009°45'4 7.0
2018-Jun-10 19:58N 51°34' W 009°40'0 0.0
2018-Jun-10 19:30N 51°34' W 009°40'0 0.0
2018-Jun-10 18:58N 51°34' W 009°40'0 0.0
2018-Jun-10 18:28N 51°34' W 009°40'0 0.0
2018-Jun-10 17:58N 51°34' W 009°40'0 0.0
2018-Jun-10 17:28N 51°34' W 009°40'0 0.0
2018-Jun-10 16:58N 51°34' W 009°40'0 0.0
2018-Jun-10 16:28N 51°34' W 009°40'3 5.8
2018-Jun-10 15:59N 51°33' W 009°44'2 3.0
2018-Jun-10 15:11N 51°32' W 009°47'735.0
2018-Jun-10 14:59N 51°31' W 009°59'2 4.5
2018-Jun-10 14:30N 51°31' W 010°02'7 7.2
2018-Jun-10 13:30N 51°32' W 010°14'7 9.6
2018-Jun-10 12:44N 51°36' W 010°24'1510.3
2018-Jun-10 11:16N 51°49' W 010°38'810.6
2018-Jun-10 10:30N 51°56' W 010°42'510.5
2018-Jun-10 10:00N 52°01' W 010°45'6 9.4
2018-Jun-10 09:21N 52°07' W 010°41'510.8
2018-Jun-10 08:52N 52°11' W 010°36'410.6
2018-Jun-10 08:29N 52°14' W 010°31'610.7
2018-Jun-10 07:56N 52°18' W 010°25'510.7
2018-Jun-10 07:27N 52°23' W 010°20'710.8
2018-Jun-10 06:46N 52°28' W 010°12'310.8
2018-Jun-10 06:29N 52°31' W 010°09'510.7
2018-Jun-10 06:00N 52°35' W 010°04'37 0.7
2018-Jun-08 02:43N 53°12' W 009°55'4 8.2
2018-Jun-08 02:12N 53°12' W 010°02'2 8.2
2018-Jun-08 01:57N 53°12' W 010°06'5 8.4
2018-Jun-08 01:21N 53°12' W 010°14'3 8.3
2018-Jun-08 00:57N 53°13' W 010°19'6 8.0
2018-Jun-08 00:14N 53°13' W 010°29'  
Track history (hours):
 
Tides and Currents Weather Stations Pressure Air Temp Water Temp Dewpoint Dewpoint Depression Visibility Wind Speed Wind Dir Waves Ship Positions

Oceanographic research ship Celtic Explorer (Ireland)

Detailed information on ship capabilities available from University of Delaware's Ocean Information Center.

Last reported at 2018-Jun-12 20:17 UTC. Time now 2018-Jun-23 04:46 UTC.
Position N 47°29' W 005°40'.
Warning: this ship's position is 10 days out of date.

Type: . MMSI: 250487000.

Date/timePositionNaut miles runAvg speedWind from/ knotsBaromVisibWave heightAir tempDewpointWater temp
2018-Jun-12 20:17N 47°29' W 005°40'261 5.9
2018-Jun-10 23:43N 51°06' W 009°24'410.7
2018-Jun-10 23:20N 51°08' W 009°29'410.9
2018-Jun-10 23:00N 51°10' W 009°33'715.0
2018-Jun-10 22:30N 51°16' W 009°42'612.1
2018-Jun-10 21:59N 51°21' W 009°47'3 6.7
2018-Jun-10 21:30N 51°24' W 009°49'713.3
2018-Jun-10 20:59N 51°31' W 009°48'3 5.5
2018-Jun-10 20:29N 51°32' W 009°45'4 7.0
2018-Jun-10 19:58N 51°34' W 009°40'0 0.0
2018-Jun-10 19:30N 51°34' W 009°40'0 0.0
2018-Jun-10 18:58N 51°34' W 009°40'0 0.0
2018-Jun-10 18:28N 51°34' W 009°40'0 0.0
2018-Jun-10 17:58N 51°34' W 009°40'0 0.0
2018-Jun-10 17:28N 51°34' W 009°40'0 0.0
2018-Jun-10 16:58N 51°34' W 009°40'0 0.0
2018-Jun-10 16:28N 51°34' W 009°40'3 5.8
2018-Jun-10 15:59N 51°33' W 009°44'2 3.0
2018-Jun-10 15:11N 51°32' W 009°47'735.0
2018-Jun-10 14:59N 51°31' W 009°59'2 4.5
2018-Jun-10 14:30N 51°31' W 010°02'7 7.2
2018-Jun-10 13:30N 51°32' W 010°14'7 9.6
2018-Jun-10 12:44N 51°36' W 010°24'1510.3
2018-Jun-10 11:16N 51°49' W 010°38'810.6
2018-Jun-10 10:30N 51°56' W 010°42'510.5
2018-Jun-10 10:00N 52°01' W 010°45'6 9.4
2018-Jun-10 09:21N 52°07' W 010°41'510.8
2018-Jun-10 08:52N 52°11' W 010°36'410.6
2018-Jun-10 08:29N 52°14' W 010°31'610.7
2018-Jun-10 07:56N 52°18' W 010°25'510.7
2018-Jun-10 07:27N 52°23' W 010°20'710.8
2018-Jun-10 06:46N 52°28' W 010°12'310.8
2018-Jun-10 06:29N 52°31' W 010°09'510.7
2018-Jun-10 06:00N 52°35' W 010°04'37 0.7
2018-Jun-08 02:43N 53°12' W 009°55'4 8.2
2018-Jun-08 02:12N 53°12' W 010°02'2 8.2
2018-Jun-08 01:57N 53°12' W 010°06'5 8.4
2018-Jun-08 01:21N 53°12' W 010°14'3 8.3
2018-Jun-08 00:57N 53°13' W 010°19'6 8.0
2018-Jun-08 00:14N 53°13' W 010°29'  

Dump ship's entire track history